createdAt,value
2018-09-14T00:00:30.093Z,99452.47
2018-09-14T00:02:58.639Z,99451.80
2018-09-14T00:05:27.229Z,99450.60
2018-09-14T00:07:56.283Z,99449.10
2018-09-14T00:10:24.980Z,99454.62
2018-09-14T00:12:53.794Z,99452.59
2018-09-14T00:15:22.323Z,99458.11
2018-09-14T00:17:51.121Z,99450.57
2018-09-14T00:20:19.735Z,99449.39
2018-09-14T00:22:49.535Z,99449.25
2018-09-14T00:25:18.136Z,99448.70
2018-09-14T00:27:46.800Z,99448.18
2018-09-14T00:30:15.341Z,99448.86
2018-09-14T00:32:43.900Z,99449.87
2018-09-14T00:35:13.323Z,99450.33
2018-09-14T00:37:42.033Z,99446.86
2018-09-14T00:40:10.582Z,99447.89
2018-09-14T00:42:39.132Z,99450.92
2018-09-14T00:45:07.671Z,99449.20
2018-09-14T00:47:36.346Z,99450.26
2018-09-14T00:50:06.323Z,99453.74
2018-09-14T00:52:35.929Z,99447.72
2018-09-14T00:55:05.649Z,99445.02
2018-09-14T00:57:34.739Z,99453.10
2018-09-14T01:00:03.219Z,99445.76
2018-09-14T01:02:32.018Z,99453.78
2018-09-14T01:05:00.606Z,99449.59
2018-09-14T01:07:29.188Z,99453.44
2018-09-14T01:09:57.706Z,99447.94
2018-09-14T01:12:26.309Z,99452.63
2018-09-14T01:14:54.811Z,99450.92
2018-09-14T01:17:23.517Z,99453.12
2018-09-14T01:19:53.106Z,99454.77
2018-09-14T01:22:21.590Z,99453.19
2018-09-14T01:24:51.006Z,99456.66
2018-09-14T01:27:19.536Z,99448.55
2018-09-14T01:29:48.864Z,99447.03
2018-09-14T01:32:17.374Z,99447.20
2018-09-14T01:34:46.165Z,99445.56
2018-09-14T01:37:15.145Z,99445.28
2018-09-14T01:39:43.923Z,99447.44
2018-09-14T01:42:14.081Z,99441.11
2018-09-14T01:44:42.617Z,99438.62
2018-09-14T01:47:11.335Z,99442.12
2018-09-14T01:49:40.236Z,99441.45
2018-09-14T01:52:08.848Z,99443.83
2018-09-14T01:54:37.615Z,99438.60
2018-09-14T01:57:06.454Z,99436.08
2018-09-14T01:59:35.689Z,99433.12
2018-09-14T02:02:04.316Z,99428.50
2018-09-14T02:04:32.931Z,99428.72
2018-09-14T02:07:01.684Z,99427.91
2018-09-14T02:09:31.196Z,99432.98
2018-09-14T02:11:59.779Z,99432.14
2018-09-14T02:14:28.355Z,99435.00
2018-09-14T02:16:56.781Z,99431.99
2018-09-14T02:19:26.226Z,99425.76
2018-09-14T02:21:55.519Z,99424.05
2018-09-14T02:24:25.155Z,99418.07
2018-09-14T02:26:53.647Z,99426.50
2018-09-14T02:29:22.225Z,99425.34
2018-09-14T02:31:50.744Z,99427.69
2018-09-14T02:34:19.253Z,99422.13
2018-09-14T02:36:48.089Z,99420.86
2018-09-14T02:39:16.643Z,99421.55
2018-09-14T02:41:45.507Z,99418.16
2018-09-14T02:44:14.503Z,99426.29
2018-09-14T02:46:43.007Z,99425.16
2018-09-14T02:49:11.554Z,99421.88
2018-09-14T02:51:40.261Z,99429.39
2018-09-14T02:54:09.411Z,99427.59
2018-09-14T02:56:38.505Z,99429.45
2018-09-14T02:59:07.711Z,99431.73
2018-09-14T03:01:36.357Z,99433.59
2018-09-14T03:04:05.658Z,99435.95
2018-09-14T03:06:34.308Z,99431.79
2018-09-14T03:09:03.723Z,99426.77
2018-09-14T03:11:32.866Z,99433.95
2018-09-14T03:14:01.335Z,99427.32
2018-09-14T03:16:29.817Z,99422.67
2018-09-14T03:18:58.364Z,99420.04
2018-09-14T03:21:27.527Z,99416.22
2018-09-14T03:23:56.080Z,99416.26
2018-09-14T03:26:24.553Z,99420.06
2018-09-14T03:28:53.669Z,99415.39
2018-09-14T03:31:22.439Z,99419.89
2018-09-14T03:33:50.981Z,99418.41
2018-09-14T03:36:19.535Z,99414.53
2018-09-14T03:38:48.056Z,99408.31
2018-09-14T03:41:16.579Z,99417.31
2018-09-14T03:43:45.099Z,99416.28
2018-09-14T03:46:13.675Z,99420.45
2018-09-14T03:48:42.174Z,99423.48
2018-09-14T03:51:11.354Z,99421.94
2018-09-14T03:53:39.879Z,99416.87
2018-09-14T03:56:08.424Z,99423.58
2018-09-14T03:58:37.054Z,99418.55
2018-09-14T04:01:06.259Z,99418.00
2018-09-14T04:03:36.184Z,99420.94
2018-09-14T04:06:04.781Z,99414.52
2018-09-14T04:08:34.537Z,99412.01
2018-09-14T04:11:03.011Z,99418.12
2018-09-14T04:13:31.508Z,99412.84
2018-09-14T04:16:00.320Z,99411.78
2018-09-14T04:18:28.811Z,99411.78
2018-09-14T04:20:58.807Z,99415.73
2018-09-14T04:23:27.925Z,99412.83
2018-09-14T04:25:56.593Z,99412.89
2018-09-14T04:28:26.008Z,99406.02
2018-09-14T04:30:55.111Z,99407.05
2018-09-14T04:33:23.701Z,99415.27
2018-09-14T04:35:52.223Z,99418.65
2018-09-14T04:38:20.858Z,99416.13
2018-09-14T04:40:49.795Z,99419.55
2018-09-14T04:43:18.287Z,99413.68
2018-09-14T04:45:46.854Z,99420.20
2018-09-14T04:48:15.577Z,99419.45
2018-09-14T04:50:44.548Z,99419.64
2018-09-14T04:53:13.372Z,99417.53
2018-09-14T04:55:41.880Z,99419.43
2018-09-14T04:58:10.419Z,99418.65
2018-09-14T05:00:38.878Z,99419.80
2018-09-14T05:03:07.462Z,99421.91
2018-09-14T05:05:36.219Z,99427.27
2018-09-14T05:08:04.697Z,99423.53
2018-09-14T05:10:33.761Z,99418.54
2018-09-14T05:13:02.284Z,99427.22
2018-09-14T05:15:30.873Z,99420.34
2018-09-14T05:18:01.210Z,99416.91
2018-09-14T05:20:29.764Z,99427.95
2018-09-14T05:22:59.108Z,99432.59
2018-09-14T05:25:27.678Z,99431.95
2018-09-14T05:27:56.379Z,99431.63
2018-09-14T05:30:24.883Z,99433.59
2018-09-14T05:32:53.733Z,99435.31
2018-09-14T05:35:22.260Z,99434.64
2018-09-14T05:37:51.090Z,99444.71
2018-09-14T05:40:19.712Z,99445.41
2018-09-14T05:42:48.242Z,99445.58
2018-09-14T05:45:16.869Z,99452.91
2018-09-14T05:47:45.651Z,99452.34
2018-09-14T05:50:14.755Z,99457.31
2018-09-14T05:52:43.902Z,99459.81
2018-09-14T05:55:12.494Z,99457.59
2018-09-14T05:57:43.918Z,99468.98
2018-09-14T06:00:12.606Z,99468.30
2018-09-14T06:02:41.910Z,99472.41
2018-09-14T06:05:10.430Z,99472.44
2018-09-14T06:07:38.939Z,99469.27
2018-09-14T06:10:08.106Z,99474.47
2018-09-14T06:12:36.567Z,99470.14
2018-09-14T06:15:04.994Z,99481.45
2018-09-14T06:17:33.456Z,99481.33
2018-09-14T06:20:01.954Z,99477.38
2018-09-14T06:22:30.459Z,99480.66
2018-09-14T06:24:58.937Z,99477.89
2018-09-14T06:27:27.419Z,99477.05
2018-09-14T06:29:55.899Z,99479.92
2018-09-14T06:32:24.929Z,99486.81
2018-09-14T06:34:53.518Z,99490.66
2018-09-14T06:37:22.052Z,99488.97
2018-09-14T06:39:53.022Z,99481.27
2018-09-14T06:42:21.684Z,99483.13
2018-09-14T06:44:50.398Z,99484.64
2018-09-14T06:47:18.891Z,99475.58
2018-09-14T06:49:47.420Z,99474.41
2018-09-14T06:52:16.496Z,99475.93
2018-09-14T06:54:45.585Z,99476.42
2018-09-14T06:57:14.395Z,99478.59
2018-09-14T06:59:43.390Z,99484.95
2018-09-14T07:02:11.984Z,99483.95
2018-09-14T07:04:40.632Z,99482.28
2018-09-14T07:07:09.839Z,99484.45
2018-09-14T07:09:38.393Z,99486.83
2018-09-14T07:12:06.937Z,99484.97
2018-09-14T07:14:35.427Z,99491.37
2018-09-14T07:17:03.928Z,99490.87
2018-09-14T07:19:33.266Z,99488.34
2018-09-14T07:22:01.803Z,99490.69
2018-09-14T07:24:30.394Z,99495.69
2018-09-14T07:26:59.016Z,99498.23
2018-09-14T07:29:27.557Z,99503.27
2018-09-14T07:31:56.176Z,99348.70
2018-09-14T07:34:24.641Z,99507.42
2018-09-14T07:36:53.259Z,99505.26
2018-09-14T07:39:22.036Z,99510.30
2018-09-14T07:41:50.722Z,99510.48
2018-09-14T07:44:20.378Z,99510.62
2018-09-14T07:46:50.384Z,99516.03
2018-09-14T07:49:18.876Z,99517.95
2018-09-14T07:51:47.425Z,99515.16
2018-09-14T07:54:16.020Z,99518.72
2018-09-14T07:56:44.566Z,99516.19
2018-09-14T07:59:13.700Z,99514.67
2018-09-14T08:01:43.717Z,99510.97
2018-09-14T08:04:12.322Z,99511.63
2018-09-14T08:06:40.878Z,99510.83
2018-09-14T08:09:11.650Z,99513.93
2018-09-14T08:11:40.094Z,99503.00
2018-09-14T08:14:09.093Z,99516.52
2018-09-14T08:16:37.827Z,99520.91
2018-09-14T08:19:06.901Z,99521.41
2018-09-14T08:21:35.723Z,99520.97
2018-09-14T08:24:05.155Z,99529.47
2018-09-14T08:26:34.699Z,99533.95
2018-09-14T08:29:03.639Z,99534.81
2018-09-14T08:31:32.141Z,99536.41
2018-09-14T08:34:01.382Z,99533.44
2018-09-14T08:36:29.807Z,99538.50
2018-09-14T08:38:58.271Z,99539.77
2018-09-14T08:41:26.793Z,99539.02
2018-09-14T08:43:55.331Z,99540.84
2018-09-14T08:46:23.846Z,99547.43
2018-09-14T08:48:52.445Z,99545.67
2018-09-14T08:51:21.523Z,99543.30
2018-09-14T08:53:50.062Z,99546.88
2018-09-14T08:56:18.546Z,99550.80
2018-09-14T08:58:47.108Z,99547.02
2018-09-14T09:01:15.583Z,99541.72
2018-09-14T09:03:44.719Z,99546.84
2018-09-14T09:06:14.249Z,99547.41
2018-09-14T09:08:42.788Z,99547.23
2018-09-14T09:11:11.489Z,99538.30
2018-09-14T09:13:40.005Z,99546.23
2018-09-14T09:16:09.015Z,99547.53
2018-09-14T09:18:37.521Z,99545.69
2018-09-14T09:21:05.994Z,99542.59
2018-09-14T09:23:34.478Z,99539.08
2018-09-14T09:26:03.217Z,99547.98
2018-09-14T09:28:32.307Z,99538.83
2018-09-14T09:31:01.637Z,99536.54
2018-09-14T09:33:30.214Z,99538.14
2018-09-14T09:35:58.722Z,99536.73
2018-09-14T09:38:27.404Z,99532.73
2018-09-14T09:40:55.915Z,99535.21
2018-09-14T09:43:24.500Z,99534.69
2018-09-14T09:45:53.010Z,99530.38
2018-09-14T09:48:21.497Z,99494.06
2018-09-14T09:50:50.038Z,99527.66
2018-09-14T09:53:18.501Z,99523.55
2018-09-14T09:55:47.039Z,99518.39
2018-09-14T09:58:16.695Z,99521.19
2018-09-14T10:00:50.631Z,99509.25
2018-09-14T10:03:24.573Z,99509.38
2018-09-14T10:06:01.180Z,99507.87
2018-09-14T10:08:30.200Z,99502.73
2018-09-14T10:10:58.638Z,99497.67
2018-09-14T10:13:27.892Z,99499.27
2018-09-14T10:15:56.462Z,99497.48
2018-09-14T10:18:25.074Z,99502.10
2018-09-14T10:20:53.785Z,99499.63
2018-09-14T10:23:23.733Z,99499.31
2018-09-14T10:25:52.250Z,99496.52
2018-09-14T10:28:21.282Z,99501.98
2018-09-14T10:30:50.139Z,99512.13
2018-09-14T10:33:18.793Z,99510.43
2018-09-14T10:35:47.903Z,99513.26
2018-09-14T10:38:16.474Z,99516.08
2018-09-14T10:40:45.458Z,99511.37
2018-09-14T10:43:14.677Z,99516.73
2018-09-14T10:45:43.253Z,99505.23
2018-09-14T10:48:13.645Z,99504.17
2018-09-14T10:50:42.238Z,99498.19
2018-09-14T10:53:10.895Z,99498.34
2018-09-14T10:55:40.100Z,99496.37
2018-09-14T10:58:08.592Z,99495.83
2018-09-14T11:00:37.101Z,99482.25
2018-09-14T11:03:05.650Z,99484.59
2018-09-14T11:05:35.585Z,99483.75
2018-09-14T11:08:05.559Z,99476.02
2018-09-14T11:10:34.180Z,99470.34
2018-09-14T11:13:02.735Z,99483.13
2018-09-14T11:15:31.786Z,99472.56
2018-09-14T11:18:00.753Z,99482.51
2018-09-14T11:20:29.649Z,99473.59
2018-09-14T11:22:58.168Z,99473.81
2018-09-14T11:25:26.891Z,99467.17
2018-09-14T11:27:55.698Z,99468.13
2018-09-14T11:30:24.206Z,99459.58
2018-09-14T11:32:52.795Z,99458.77
2018-09-14T11:35:21.316Z,99458.50
2018-09-14T11:37:50.773Z,99448.23
2018-09-14T11:40:19.155Z,99451.75
2018-09-14T11:42:47.689Z,99451.44
2018-09-14T11:45:16.266Z,99443.32
2018-09-14T11:47:44.749Z,99446.91
2018-09-14T11:50:13.510Z,99439.96
2018-09-14T11:52:42.047Z,99442.38
2018-09-14T11:55:10.555Z,99442.59
2018-09-14T11:57:39.229Z,99438.56
2018-09-14T12:00:07.909Z,99433.69
2018-09-14T12:02:36.996Z,99434.53
2018-09-14T12:05:05.703Z,99435.91
2018-09-14T12:07:37.157Z,99438.28
2018-09-14T12:10:06.011Z,99432.23
2018-09-14T12:12:35.532Z,99432.95
2018-09-14T12:15:04.252Z,99428.67
2018-09-14T12:17:33.623Z,99424.52
2018-09-14T12:20:02.178Z,99423.09
2018-09-14T12:22:30.620Z,99421.66
2018-09-14T12:24:59.205Z,99421.95
2018-09-14T12:27:27.807Z,99422.67
2018-09-14T12:29:56.295Z,99421.02
2018-09-14T12:32:24.810Z,99421.52
2018-09-14T12:34:53.549Z,99416.58
2018-09-14T12:37:22.102Z,99413.41
2018-09-14T12:39:50.696Z,99406.89
2018-09-14T12:42:19.291Z,99417.52
2018-09-14T12:44:47.843Z,99413.30
2018-09-14T12:47:17.108Z,99410.64
2018-09-14T12:49:45.592Z,99409.34
2018-09-14T12:52:14.881Z,99412.94
2018-09-14T12:54:43.432Z,99414.39
2018-09-14T12:57:11.955Z,99414.98
2018-09-14T12:59:41.143Z,99410.20
2018-09-14T13:02:09.687Z,99407.41
2018-09-14T13:04:38.192Z,99400.35
2018-09-14T13:07:07.544Z,99395.66
2018-09-14T13:09:37.509Z,99402.11
2018-09-14T13:12:06.195Z,99403.94
2018-09-14T13:14:36.219Z,99398.39
2018-09-14T13:17:04.728Z,99409.04
2018-09-14T13:19:33.306Z,99395.89
2018-09-14T13:22:01.868Z,99393.34
2018-09-14T13:24:30.414Z,99387.32
2018-09-14T13:26:58.943Z,99392.27
2018-09-14T13:29:27.534Z,99388.88
2018-09-14T13:31:56.946Z,99390.95
2018-09-14T13:34:25.483Z,99385.80
2018-09-14T13:36:54.160Z,99380.08
2018-09-14T13:39:23.266Z,99380.16
2018-09-14T13:41:51.812Z,99202.33
2018-09-14T13:44:21.019Z,99372.05
2018-09-14T13:46:49.565Z,99367.87
2018-09-14T13:49:18.049Z,99372.95
2018-09-14T13:51:46.608Z,99364.95
2018-09-14T13:54:16.495Z,99363.67
2018-09-14T13:56:46.344Z,99368.70
2018-09-14T13:59:15.042Z,99365.53
2018-09-14T14:01:43.791Z,99362.39
2018-09-14T14:04:13.120Z,99364.37
2018-09-14T14:06:41.760Z,99364.72
2018-09-14T14:09:12.169Z,99366.05
2018-09-14T14:11:41.811Z,99361.67
2018-09-14T14:14:11.188Z,99358.18
2018-09-14T14:16:41.589Z,99363.45
2018-09-14T14:19:10.681Z,99362.27
2018-09-14T14:21:40.738Z,99362.41
2018-09-14T14:24:11.420Z,99356.14
2018-09-14T14:26:40.192Z,99355.23
2018-09-14T14:29:08.719Z,99357.06
2018-09-14T14:31:37.233Z,99349.94
2018-09-14T14:34:06.312Z,99353.19
2018-09-14T14:36:35.432Z,99353.03
2018-09-14T14:39:05.089Z,99350.53
2018-09-14T14:41:34.379Z,99346.31
2018-09-14T14:44:03.512Z,99343.14
2018-09-14T14:46:32.020Z,99342.94
2018-09-14T14:49:00.580Z,99341.50
2018-09-14T14:51:29.152Z,99338.22
2018-09-14T14:53:57.699Z,99341.39
2018-09-14T14:56:26.427Z,99337.87
2018-09-14T14:58:55.408Z,99342.05
2018-09-14T15:01:25.730Z,99343.08
2018-09-14T15:03:55.811Z,99336.15
2018-09-14T15:06:24.532Z,99340.98
2018-09-14T15:08:53.241Z,99335.61
2018-09-14T15:11:22.387Z,99344.23
2018-09-14T15:13:50.907Z,99334.16
2018-09-14T15:16:19.622Z,99328.02
2018-09-14T15:18:48.213Z,99328.38
2018-09-14T15:21:16.715Z,99335.52
2018-09-14T15:23:47.000Z,99335.36
2018-09-14T15:26:15.520Z,99331.80
2018-09-14T15:28:44.067Z,99331.80
2018-09-14T15:31:13.547Z,99332.95
2018-09-14T15:33:42.135Z,99335.36
2018-09-14T15:36:10.723Z,99335.91
2018-09-14T15:38:39.339Z,99336.30
2018-09-14T15:41:07.835Z,99341.79
2018-09-14T15:43:36.514Z,99341.80
2018-09-14T15:46:05.082Z,99336.17
2018-09-14T15:48:33.663Z,99351.20
2018-09-14T15:51:02.788Z,99345.36
2018-09-14T15:53:32.511Z,99352.63
2018-09-14T15:56:01.152Z,99340.79
2018-09-14T15:58:29.816Z,99338.57
2018-09-14T16:00:59.677Z,99345.45
2018-09-14T16:03:28.236Z,99348.48
2018-09-14T16:05:56.822Z,99348.80
2018-09-14T16:08:25.900Z,99344.10
2018-09-14T16:10:54.514Z,99339.72
2018-09-14T16:13:23.023Z,99348.38
2018-09-14T16:15:51.644Z,99341.61
2018-09-14T16:18:20.740Z,99343.78
2018-09-14T16:20:49.233Z,99348.52
2018-09-14T16:23:17.747Z,99351.41
2018-09-14T16:25:46.223Z,99352.02
2018-09-14T16:28:14.761Z,99355.31
2018-09-14T16:30:44.679Z,99356.33
2018-09-14T16:33:13.377Z,99353.90
2018-09-14T16:35:41.820Z,99362.58
2018-09-14T16:38:10.376Z,99355.82
2018-09-14T16:40:39.113Z,99356.13
2018-09-14T16:43:07.628Z,99363.32
2018-09-14T16:45:36.747Z,99353.05
2018-09-14T16:48:05.231Z,99360.48
2018-09-14T16:50:33.778Z,99364.19
2018-09-14T16:53:02.551Z,99366.20
2018-09-14T16:55:32.004Z,99371.36
2018-09-14T16:58:00.503Z,99369.53
2018-09-14T17:00:29.119Z,99372.11
2018-09-14T17:02:57.736Z,99377.82
2018-09-14T17:05:26.215Z,99376.83
2018-09-14T17:07:55.791Z,99380.28
2018-09-14T17:10:26.473Z,99384.19
2018-09-14T17:12:55.062Z,99383.58
2018-09-14T17:15:23.575Z,99381.94
2018-09-14T17:17:52.262Z,99383.17
2018-09-14T17:20:21.038Z,99381.84
2018-09-14T17:22:50.519Z,99381.19
2018-09-14T17:25:19.272Z,99381.25
2018-09-14T17:27:47.869Z,99377.73
2018-09-14T17:30:16.410Z,99379.90
2018-09-14T17:32:45.464Z,99378.41
2018-09-14T17:35:14.909Z,99385.09
2018-09-14T17:37:43.626Z,99386.50
2018-09-14T17:40:12.162Z,99385.94
2018-09-14T17:42:41.334Z,99386.70
2018-09-14T17:45:10.054Z,99386.19
2018-09-14T17:47:39.396Z,99384.34
2018-09-14T17:50:08.091Z,99390.44
2018-09-14T17:52:36.787Z,99389.60
2018-09-14T17:55:05.280Z,99387.56
2018-09-14T17:57:34.102Z,99394.70
2018-09-14T18:00:03.434Z,99394.65
2018-09-14T18:02:32.003Z,99399.84
2018-09-14T18:05:00.535Z,99399.33
2018-09-14T18:07:29.017Z,99404.56
2018-09-14T18:09:57.480Z,99407.68
2018-09-14T18:12:25.958Z,99412.50
2018-09-14T18:14:54.989Z,99414.45
2018-09-14T18:17:24.404Z,99418.31
2018-09-14T18:19:53.455Z,99418.30
2018-09-14T18:22:22.116Z,99420.54
2018-09-14T18:24:50.641Z,99411.44
2018-09-14T18:27:19.276Z,99411.64
2018-09-14T18:29:47.820Z,99421.56
2018-09-14T18:32:16.293Z,99419.38
2018-09-14T18:34:44.771Z,99419.70
2018-09-14T18:37:13.920Z,99423.23
2018-09-14T18:39:42.559Z,99423.66
2018-09-14T18:42:11.035Z,99426.69
2018-09-14T18:44:39.509Z,99431.31
2018-09-14T18:47:08.095Z,99431.81
2018-09-14T18:49:36.657Z,99438.68
2018-09-14T18:52:05.228Z,99433.91
2018-09-14T18:54:34.771Z,99435.58
2018-09-14T18:57:03.889Z,99431.16
2018-09-14T18:59:32.488Z,99436.36
2018-09-14T19:02:01.412Z,99432.86
2018-09-14T19:04:29.849Z,99438.44
2018-09-14T19:06:58.515Z,99440.88
2018-09-14T19:09:27.449Z,99446.84
2018-09-14T19:11:55.987Z,99452.73
2018-09-14T19:14:24.552Z,99458.41
2018-09-14T19:16:53.667Z,99460.66
2018-09-14T19:19:23.164Z,99457.80
2018-09-14T19:21:52.060Z,99456.47
2018-09-14T19:24:20.536Z,99464.78
2018-09-14T19:26:49.019Z,99470.58
2018-09-14T19:29:17.455Z,99479.68
2018-09-14T19:31:46.091Z,99481.08
2018-09-14T19:34:15.274Z,99472.31
2018-09-14T19:36:43.747Z,99480.58
2018-09-14T19:39:14.430Z,99492.88
2018-09-14T19:41:42.939Z,99490.37
2018-09-14T19:44:11.386Z,99486.38
2018-09-14T19:46:39.875Z,99487.52
2018-09-14T19:49:08.376Z,99484.83
2018-09-14T19:51:37.744Z,99486.18
2018-09-14T19:54:06.680Z,99483.01
2018-09-14T19:56:36.155Z,99488.05
2018-09-14T19:59:04.708Z,99481.55
2018-09-14T20:01:33.290Z,99484.10
2018-09-14T20:04:01.823Z,99483.09
2018-09-14T20:06:30.304Z,99490.52
2018-09-14T20:08:58.877Z,99486.84
2018-09-14T20:11:27.452Z,99486.16
2018-09-14T20:13:55.964Z,99482.95
2018-09-14T20:16:24.424Z,99484.45
2018-09-14T20:18:53.724Z,99484.64
2018-09-14T20:21:22.222Z,99485.84
2018-09-14T20:23:51.528Z,99492.34
2018-09-14T20:26:20.063Z,99494.67
2018-09-14T20:28:48.676Z,99488.16
2018-09-14T20:31:18.260Z,99488.99
2018-09-14T20:33:46.771Z,99440.16
2018-09-14T20:36:15.565Z,99498.20
2018-09-14T20:38:44.015Z,99497.53
2018-09-14T20:41:12.555Z,99495.83
2018-09-14T20:43:41.612Z,99498.14
2018-09-14T20:46:10.059Z,99499.19
2018-09-14T20:48:38.752Z,99494.02
2018-09-14T20:51:07.246Z,99495.34
2018-09-14T20:53:36.459Z,99491.13
2018-09-14T20:56:05.007Z,99500.48
2018-09-14T20:58:34.232Z,99508.34
2018-09-14T21:01:02.706Z,99510.17
2018-09-14T21:03:32.039Z,99514.84
2018-09-14T21:06:00.531Z,99513.02
2018-09-14T21:08:29.142Z,99523.62
2018-09-14T21:10:57.631Z,99524.17
2018-09-14T21:13:26.146Z,99531.98
2018-09-14T21:15:55.411Z,99527.11
2018-09-14T21:18:25.300Z,99536.17
2018-09-14T21:20:54.228Z,99526.08
2018-09-14T21:23:22.811Z,99530.77
2018-09-14T21:25:51.540Z,99536.48
2018-09-14T21:28:20.039Z,99525.93
2018-09-14T21:30:49.430Z,99530.30
2018-09-14T21:33:18.610Z,99538.52
2018-09-14T21:35:47.127Z,99538.48
2018-09-14T21:38:15.650Z,99545.62
2018-09-14T21:40:44.097Z,99550.81
2018-09-14T21:43:12.579Z,99546.95
2018-09-14T21:45:41.093Z,99543.30
2018-09-14T21:48:09.703Z,99544.74
2018-09-14T21:50:38.819Z,99552.14
2018-09-14T21:53:07.440Z,99553.94
2018-09-14T21:55:35.926Z,99567.72
2018-09-14T21:58:05.047Z,99570.64
2018-09-14T22:00:38.770Z,99572.92
2018-09-14T22:03:07.280Z,99572.70
2018-09-14T22:05:35.864Z,99566.02
2018-09-14T22:08:04.823Z,99569.84
2018-09-14T22:10:33.672Z,99560.69
2018-09-14T22:13:02.184Z,99563.40
2018-09-14T22:15:30.695Z,99567.27
2018-09-14T22:17:59.159Z,99572.73
2018-09-14T22:20:27.643Z,99573.26
2018-09-14T22:22:56.644Z,99573.93
2018-09-14T22:25:25.089Z,99572.00
2018-09-14T22:27:53.617Z,99571.27
2018-09-14T22:30:22.132Z,99573.60
2018-09-14T22:32:50.571Z,99567.47
2018-09-14T22:35:19.086Z,99573.23
2018-09-14T22:37:47.584Z,99574.53
2018-09-14T22:40:16.269Z,99576.45
2018-09-14T22:42:44.921Z,99571.63
2018-09-14T22:45:13.680Z,99581.00
2018-09-14T22:47:42.148Z,99584.16
2018-09-14T22:50:10.631Z,99586.83
2018-09-14T22:52:39.861Z,99591.17
2018-09-14T22:55:09.350Z,99591.56
2018-09-14T22:57:37.911Z,99591.85
2018-09-14T23:00:07.837Z,99600.50
2018-09-14T23:02:36.398Z,99602.64
2018-09-14T23:05:05.386Z,99600.77
2018-09-14T23:07:34.562Z,99599.24
2018-09-14T23:10:03.171Z,99603.88
2018-09-14T23:12:32.374Z,99612.16
2018-09-14T23:15:01.580Z,99612.55
2018-09-14T23:17:30.033Z,99608.23
2018-09-14T23:19:58.528Z,99598.95
2018-09-14T23:22:27.134Z,99604.51
2018-09-14T23:24:55.828Z,99607.98
2018-09-14T23:27:24.338Z,99605.98
2018-09-14T23:29:53.037Z,99615.71
2018-09-14T23:32:22.292Z,99622.88
2018-09-14T23:34:50.807Z,99621.48
2018-09-14T23:37:19.699Z,99632.81
2018-09-14T23:39:48.228Z,99630.25
2018-09-14T23:42:16.787Z,99633.13
2018-09-14T23:44:45.315Z,99632.03
2018-09-14T23:47:15.469Z,99634.45
2018-09-14T23:49:44.123Z,99635.45
2018-09-14T23:52:13.324Z,99635.08
2018-09-14T23:54:41.888Z,99626.63
2018-09-14T23:57:10.620Z,99630.56
2018-09-14T23:59:39.808Z,99624.16
